Time;durP1;ratioP1;P1;durP2;ratioP2;P2;SDS_P1;SDS_P2;PMS_P1;PMS_P2;Temp;Humidity;BMP_temperature;BMP_pressure;BME280_temperature;BME280_humidity;BME280_pressure;Samples;Min_cycle;Max_cycle;Signal;HPM_P1;HPM_P2
2021/10/12 00:00:49;;;;;;;7.53;3.65;;;231.30;2252.80;;;;;;5094224;28;20032;-82
2021/10/12 00:03:15;;;;;;;5.57;3.40;;;231.30;2252.80;;;;;;5093295;28;20028;-82
2021/10/12 00:05:41;;;;;;;5.05;3.50;;;231.30;2252.80;;;;;;5092906;28;20024;-82
2021/10/12 00:08:08;;;;;;;4.85;3.40;;;231.30;2252.80;;;;;;5093300;28;20020;-82
2021/10/12 00:10:34;;;;;;;6.70;3.75;;;231.30;2252.80;;;;;;5093032;28;20028;-82
2021/10/12 00:13:00;;;;;;;5.25;3.35;;;231.20;2252.80;;;;;;5092932;28;20034;-83
2021/10/12 00:15:26;;;;;;;4.80;2.70;;;231.30;2252.80;;;;;;5093086;28;20028;-84
2021/10/12 00:17:51;;;;;;;4.43;2.90;;;231.30;2252.80;;;;;;5092861;28;20031;-83
2021/10/12 00:20:17;;;;;;;6.13;3.40;;;231.30;2252.80;;;;;;5093803;28;20020;-81
2021/10/12 00:22:43;;;;;;;5.97;3.55;;;231.30;2252.80;;;;;;5092880;28;20032;-80
2021/10/12 00:25:09;;;;;;;4.95;2.75;;;231.30;2252.80;;;;;;5092689;28;20375;-80
2021/10/12 00:27:35;;;;;;;3.97;2.58;;;231.20;2252.80;;;;;;5092779;28;20031;-81
2021/10/12 00:30:01;;;;;;;4.57;3.03;;;231.20;2252.80;;;;;;5092390;28;20142;-80
2021/10/12 00:32:26;;;;;;;5.75;3.10;;;231.20;2252.80;;;;;;5093586;28;20099;-80
2021/10/12 00:34:52;;;;;;;3.80;2.45;;;231.30;2252.80;;;;;;5092446;28;20178;-80
2021/10/12 00:37:18;;;;;;;4.15;2.42;;;231.20;2252.80;;;;;;5092760;28;20051;-81
2021/10/12 00:39:44;;;;;;;3.70;2.47;;;231.20;2252.80;;;;;;5092465;28;20535;-80
2021/10/12 00:42:10;;;;;;;3.80;2.40;;;231.30;2252.80;;;;;;5093245;28;20028;-80
2021/10/12 00:44:36;;;;;;;3.30;2.40;;;231.30;2252.80;;;;;;5101651;28;20032;-79
2021/10/12 00:47:03;;;;;;;4.25;2.10;;;231.30;2252.80;;;;;;5101833;28;20050;-80
2021/10/12 00:49:28;;;;;;;4.38;2.45;;;231.30;2252.80;;;;;;5102585;28;20032;-79
2021/10/12 00:51:54;;;;;;;3.97;2.22;;;231.30;2252.80;;;;;;5101570;28;20024;-79
2021/10/12 00:54:20;;;;;;;3.33;2.10;;;231.30;2252.80;;;;;;5101957;28;20032;-79
2021/10/12 00:56:47;;;;;;;3.42;1.83;;;231.30;2252.80;;;;;;5102713;28;20092;-80
2021/10/12 00:59:13;;;;;;;3.92;2.33;;;231.30;2252.80;;;;;;5101860;28;20073;-79
2021/10/12 01:01:40;;;;;;;3.85;2.08;;;231.30;2252.80;;;;;;5103251;28;20024;-79
2021/10/12 01:04:07;;;;;;;4.60;2.78;;;231.30;2252.80;;;;;;5102368;28;20085;-80
2021/10/12 01:06:34;;;;;;;3.83;2.35;;;231.30;2252.80;;;;;;5102155;28;20028;-77
2021/10/12 01:08:59;;;;;;;5.32;2.92;;;256.00;2252.80;;;;;;5102713;28;20543;-79
2021/10/12 01:11:26;;;;;;;6.25;3.40;;;256.00;2252.80;;;;;;5103581;28;20020;-80
2021/10/12 01:13:52;;;;;;;3.70;1.90;;;256.00;2252.80;;;;;;5098153;28;20033;-80
2021/10/12 01:16:18;;;;;;;4.82;2.10;;;231.30;2252.80;;;;;;5092444;28;20533;-81
2021/10/12 01:18:57;;;;;;;4.07;1.70;;;231.30;2252.80;;;;;;5093453;28;20020;-81
2021/10/12 01:21:25;;;;;;;3.10;1.80;;;231.30;2252.80;;;;;;5095627;28;20024;-79
2021/10/12 01:23:51;;;;;;;3.75;1.73;;;231.30;2252.80;;;;;;5095871;28;20024;-78
2021/10/12 01:26:17;;;;;;;3.22;1.70;;;256.00;2252.80;;;;;;5099660;28;20024;-78
2021/10/12 01:28:43;;;;;;;3.47;2.00;;;231.30;2252.80;;;;;;5095519;28;20024;-78
2021/10/12 01:31:38;;;;;;;3.05;1.55;;;231.30;2252.80;;;;;;5104317;28;20027;-78
2021/10/12 01:34:13;;;;;;;3.58;1.65;;;256.00;2252.80;;;;;;5097023;28;20100;-78
2021/10/12 01:36:39;;;;;;;4.38;2.28;;;256.00;2252.80;;;;;;5104096;28;20024;-80
2021/10/12 01:39:04;;;;;;;4.18;2.15;;;256.00;2252.80;;;;;;5094014;28;20030;-81
2021/10/12 01:41:30;;;;;;;5.68;3.30;;;256.00;2252.80;;;;;;5092698;28;20077;-83
2021/10/12 01:43:57;;;;;;;6.93;3.67;;;231.30;2252.80;;;;;;5095945;28;20035;-80
2021/10/12 01:46:23;;;;;;;10.23;5.03;;;231.30;2252.80;;;;;;5096770;28;20020;-81
2021/10/12 01:48:49;;;;;;;10.20;4.93;;;256.00;2252.80;;;;;;5095586;28;20115;-80
2021/10/12 01:51:15;;;;;;;7.10;3.70;;;256.00;2252.80;;;;;;5096974;28;20498;-81
2021/10/12 01:53:41;;;;;;;7.35;3.75;;;256.10;2252.80;;;;;;5095719;28;20115;-81
2021/10/12 01:56:07;;;;;;;8.05;4.53;;;256.10;2252.80;;;;;;5096206;28;20024;-81
2021/10/12 01:58:35;;;;;;;8.32;4.57;;;256.00;2252.80;;;;;;5095450;28;20027;-82
2021/10/12 02:01:00;;;;;;;6.45;3.10;;;256.10;2252.80;;;;;;5095597;28;20036;-80
2021/10/12 02:03:26;;;;;;;8.65;4.30;;;256.10;2252.80;;;;;;5095234;28;20429;-79
2021/10/12 02:05:52;;;;;;;6.43;2.65;;;256.10;2252.80;;;;;;5096733;28;20024;-81
2021/10/12 02:08:18;;;;;;;3.20;1.75;;;256.10;2252.80;;;;;;5096670;28;20016;-79
2021/10/12 02:10:44;;;;;;;4.80;2.53;;;256.10;2252.80;;;;;;5095234;28;20032;-82
2021/10/12 02:13:10;;;;;;;5.82;2.70;;;256.10;2252.80;;;;;;5095289;28;20035;-81
2021/10/12 02:15:35;;;;;;;3.72;1.92;;;256.10;2252.80;;;;;;5095338;28;20028;-79
2021/10/12 02:18:01;;;;;;;7.97;3.70;;;256.00;2252.80;;;;;;5094958;28;20482;-83
2021/10/12 02:20:27;;;;;;;4.13;2.38;;;256.10;2252.80;;;;;;5096410;28;20030;-80
2021/10/12 02:22:53;;;;;;;4.07;2.28;;;256.10;2252.80;;;;;;5095019;28;20024;-81
2021/10/12 02:25:19;;;;;;;4.65;2.88;;;256.10;2252.80;;;;;;5094798;28;20028;-79
2021/10/12 02:27:45;;;;;;;4.45;2.45;;;256.00;2252.80;;;;;;5095012;28;20098;-80
2021/10/12 02:30:11;;;;;;;5.45;3.15;;;256.00;2252.80;;;;;;5096169;28;20023;-82
2021/10/12 02:32:37;;;;;;;4.88;2.70;;;231.00;2252.80;;;;;;5096039;28;20098;-81
2021/10/12 02:35:04;;;;;;;7.00;3.80;;;256.10;2252.80;;;;;;5094618;28;20574;-81
2021/10/12 02:37:30;;;;;;;4.80;2.40;;;256.10;2252.80;;;;;;5095869;28;20123;-82
2021/10/12 02:39:56;;;;;;;5.55;2.55;;;256.10;2252.80;;;;;;5095856;28;20090;-82
2021/10/12 02:42:22;;;;;;;6.47;2.63;;;256.10;2252.80;;;;;;5094748;28;20454;-79
2021/10/12 02:44:47;;;;;;;4.05;2.15;;;256.10;2252.80;;;;;;5094418;28;20490;-81
2021/10/12 02:47:13;;;;;;;3.28;1.75;;;256.20;2252.80;;;;;;5094652;28;20119;-81
2021/10/12 02:49:39;;;;;;;4.15;1.70;;;256.10;2252.80;;;;;;5094545;28;20198;-82
2021/10/12 02:52:05;;;;;;;3.00;1.58;;;256.10;2252.80;;;;;;5094352;28;20031;-83
2021/10/12 02:54:31;;;;;;;4.45;2.35;;;256.10;2252.80;;;;;;5094282;28;20102;-80
2021/10/12 02:56:57;;;;;;;4.10;2.20;;;256.20;2252.80;;;;;;5094542;28;20024;-82
2021/10/12 02:59:23;;;;;;;5.93;3.15;;;256.20;2252.80;;;;;;5095135;28;20028;-80
2021/10/12 03:01:48;;;;;;;4.47;2.45;;;256.20;2252.80;;;;;;5094250;28;20028;-81
2021/10/12 03:04:14;;;;;;;4.22;2.15;;;256.20;2252.80;;;;;;5093921;28;20022;-82
2021/10/12 03:06:43;;;;;;;3.50;1.63;;;256.20;2252.80;;;;;;5095530;28;20059;-82
2021/10/12 03:09:09;;;;;;;3.30;1.85;;;256.20;2252.80;;;;;;5094301;28;20059;-80
2021/10/12 03:11:34;;;;;;;2.78;1.30;;;256.20;2252.80;;;;;;5094205;28;20054;-82
2021/10/12 03:14:01;;;;;;;3.30;1.90;;;256.20;2252.80;;;;;;5093688;28;20376;-81
2021/10/12 03:16:27;;;;;;;3.78;1.80;;;256.20;2252.80;;;;;;5093944;28;20069;-82
2021/10/12 03:18:53;;;;;;;4.10;1.70;;;256.20;2252.80;;;;;;5094009;28;20114;-82
2021/10/12 03:21:20;;;;;;;3.40;1.80;;;256.20;2252.80;;;;;;5094931;28;20107;-80
2021/10/12 03:23:46;;;;;;;4.35;2.20;;;256.20;2252.80;;;;;;5095599;28;20441;-80
2021/10/12 03:26:12;;;;;;;3.95;1.95;;;256.20;2252.80;;;;;;5095112;28;20068;-79
2021/10/12 03:28:38;;;;;;;2.70;1.45;;;256.40;2252.80;;;;;;5094732;28;20468;-81
2021/10/12 03:31:03;;;;;;;4.15;1.92;;;256.20;2252.80;;;;;;5093843;28;20020;-81
2021/10/12 03:33:29;;;;;;;3.20;1.60;;;256.20;2252.80;;;;;;5093898;28;20129;-79
2021/10/12 03:36:00;;;;;;;3.22;1.80;;;256.20;2252.80;;;;;;5093366;28;20089;-81
2021/10/12 03:38:28;;;;;;;4.10;2.10;;;256.20;2252.80;;;;;;5093882;28;20101;-81
2021/10/12 03:40:54;;;;;;;4.63;2.05;;;256.20;2252.80;;;;;;5093678;28;20020;-81
2021/10/12 03:43:21;;;;;;;3.47;1.70;;;231.30;2252.80;;;;;;5094217;28;20024;-81
2021/10/12 03:45:48;;;;;;;5.28;2.65;;;256.20;2252.80;;;;;;5093881;28;20033;-83
2021/10/12 03:48:13;;;;;;;4.88;2.83;;;256.20;2252.80;;;;;;5093222;28;20024;-81
2021/10/12 03:50:39;;;;;;;8.57;4.53;;;256.20;2252.80;;;;;;5093552;28;20282;-82
2021/10/12 03:53:06;;;;;;;5.45;3.47;;;256.20;2252.80;;;;;;5093566;28;20020;-84
2021/10/12 03:55:31;;;;;;;5.07;2.28;;;256.20;2252.80;;;;;;5093117;28;20039;-81
2021/10/12 03:57:57;;;;;;;7.55;4.32;;;256.20;2252.80;;;;;;5094527;28;20021;-82
2021/10/12 04:00:23;;;;;;;6.25;3.03;;;256.20;2252.80;;;;;;5093565;28;20032;-83
2021/10/12 04:02:49;;;;;;;5.50;2.40;;;256.20;2252.80;;;;;;5093031;28;20119;-82
2021/10/12 04:05:15;;;;;;;5.80;3.78;;;256.20;2252.80;;;;;;5093763;28;20116;-82
2021/10/12 04:07:42;;;;;;;8.18;6.45;;;256.10;2252.80;;;;;;5093265;28;20055;-81
2021/10/12 04:10:08;;;;;;;8.25;6.93;;;256.20;2252.80;;;;;;5094364;28;20073;-82
2021/10/12 04:12:35;;;;;;;7.20;5.93;;;256.20;2252.80;;;;;;5093176;28;20353;-83
2021/10/12 04:15:00;;;;;;;8.05;5.80;;;256.10;2252.80;;;;;;5092973;28;20089;-83
2021/10/12 04:17:26;;;;;;;10.02;5.93;;;256.10;2252.80;;;;;;5093730;28;20028;-81
2021/10/12 04:19:52;;;;;;;10.98;7.15;;;256.10;2252.80;;;;;;5093002;28;20073;-82
2021/10/12 04:22:18;;;;;;;8.38;6.28;;;256.20;2252.80;;;;;;5092885;28;20380;-83
2021/10/12 04:24:44;;;;;;;6.95;5.70;;;256.10;2252.80;;;;;;5092767;28;20028;-82
2021/10/12 04:27:09;;;;;;;5.03;3.92;;;256.20;2252.80;;;;;;5092895;28;20028;-83
2021/10/12 04:29:35;;;;;;;5.47;2.65;;;256.20;2252.80;;;;;;5092910;28;20052;-83
2021/10/12 04:32:02;;;;;;;12.75;6.25;;;256.10;2252.80;;;;;;5092867;28;20025;-81
2021/10/12 04:34:28;;;;;;;6.97;3.33;;;256.10;2252.80;;;;;;5092471;28;20052;-79
2021/10/12 04:36:55;;;;;;;6.53;3.20;;;256.10;2252.80;;;;;;5093767;28;20055;-81
2021/10/12 04:39:21;;;;;;;3.80;2.28;;;256.20;2252.80;;;;;;5094201;28;20074;-83
2021/10/12 04:41:47;;;;;;;3.40;1.83;;;256.10;2252.80;;;;;;5094012;28;20020;-81
2021/10/12 04:44:13;;;;;;;3.47;1.90;;;256.00;2252.80;;;;;;5093894;28;20028;-83
2021/10/12 04:46:39;;;;;;;4.15;2.63;;;256.20;2252.80;;;;;;5093581;28;20101;-82
2021/10/12 04:49:06;;;;;;;6.95;3.55;;;256.20;2252.80;;;;;;5093959;28;20459;-82
2021/10/12 04:51:32;;;;;;;5.57;2.85;;;256.20;2252.80;;;;;;5093816;28;20047;-81
2021/10/12 04:53:58;;;;;;;6.90;4.18;;;256.20;2252.80;;;;;;5092669;28;20100;-81
2021/10/12 04:56:24;;;;;;;10.40;3.50;;;256.20;2252.80;;;;;;5092522;28;20024;-82
2021/10/12 04:58:50;;;;;;;4.95;3.08;;;256.20;2252.80;;;;;;5092358;28;20028;-83
2021/10/12 05:01:16;;;;;;;5.90;3.40;;;256.20;2252.80;;;;;;5092708;28;20073;-82
2021/10/12 05:03:42;;;;;;;6.45;4.20;;;256.20;2252.80;;;;;;5092619;28;20024;-82
2021/10/12 05:06:08;;;;;;;6.10;3.60;;;256.20;2252.80;;;;;;5092595;28;20594;-82
2021/10/12 05:08:33;;;;;;;7.28;2.80;;;256.20;2252.80;;;;;;5092566;28;20028;-82
2021/10/12 05:10:59;;;;;;;6.35;3.65;;;256.20;2252.80;;;;;;5093406;28;20103;-83
2021/10/12 05:13:26;;;;;;;7.15;4.30;;;256.20;2252.80;;;;;;5092659;28;20025;-82
2021/10/12 05:15:52;;;;;;;5.72;3.00;;;256.10;2252.80;;;;;;5094152;28;20111;-82
2021/10/12 05:18:30;;;;;;;9.90;6.10;;;256.10;2252.80;;;;;;5095772;28;20052;-81
2021/10/12 05:20:56;;;;;;;8.60;5.65;;;256.20;2252.80;;;;;;5096311;28;20464;-82
2021/10/12 05:23:21;;;;;;;12.00;7.10;;;256.20;2252.80;;;;;;5096476;28;20050;-82
2021/10/12 05:25:49;;;;;;;5.65;4.03;;;256.20;2252.80;;;;;;5095985;28;20027;-81
2021/10/12 05:28:16;;;;;;;9.32;4.47;;;256.20;2252.80;;;;;;5096147;28;20020;-83
2021/10/12 05:30:42;;;;;;;8.07;3.58;;;256.20;2252.80;;;;;;5096163;28;20056;-83
2021/10/12 05:33:12;;;;;;;9.70;4.88;;;256.20;2252.80;;;;;;5097152;28;20107;-81
2021/10/12 05:35:38;;;;;;;7.18;4.35;;;256.20;2252.80;;;;;;5095423;28;20100;-83
2021/10/12 05:38:04;;;;;;;22.50;17.23;;;256.20;2252.80;;;;;;5096161;28;20402;-82
2021/10/12 05:40:29;;;;;;;27.40;22.33;;;256.20;2252.80;;;;;;5095728;28;20038;-81
2021/10/12 05:42:55;;;;;;;13.85;10.15;;;256.20;2252.80;;;;;;5095969;28;20031;-80
2021/10/12 05:45:21;;;;;;;12.80;8.40;;;256.20;2252.80;;;;;;5097043;28;20103;-82
2021/10/12 05:47:47;;;;;;;27.45;21.30;;;256.30;2252.80;;;;;;5095710;28;20422;-81
2021/10/12 05:50:13;;;;;;;11.90;8.57;;;256.20;2252.80;;;;;;5095766;28;20451;-82
2021/10/12 05:52:41;;;;;;;5.97;4.63;;;256.30;2252.80;;;;;;5095800;28;20122;-80
2021/10/12 05:55:13;;;;;;;5.93;4.05;;;256.30;2252.80;;;;;;5095579;28;20090;-81
2021/10/12 06:00:23;;;;;;;11.95;7.40;;;256.40;2252.80;;;;;;5096928;28;20027;-82
2021/10/12 06:02:48;;;;;;;13.15;8.30;;;256.40;2252.80;;;;;;5096530;28;20020;-80
2021/10/12 06:05:14;;;;;;;8.88;6.35;;;256.40;2252.80;;;;;;5095269;28;20065;-82
2021/10/12 06:07:40;;;;;;;10.32;7.05;;;256.40;2252.80;;;;;;5095168;28;20050;-81
2021/10/12 06:10:06;;;;;;;8.32;5.05;;;256.40;2252.80;;;;;;5095156;28;20020;-82
2021/10/12 06:12:32;;;;;;;13.75;8.02;;;256.20;2252.80;;;;;;5095300;28;20519;-81
2021/10/12 06:14:58;;;;;;;11.30;8.05;;;256.40;2252.80;;;;;;5094943;28;20135;-80
2021/10/12 06:17:24;;;;;;;9.38;6.50;;;256.40;2252.80;;;;;;5095439;28;20060;-81
2021/10/12 06:19:49;;;;;;;10.13;7.63;;;256.60;2252.80;;;;;;5095230;28;20024;-84
2021/10/12 06:22:15;;;;;;;8.60;6.10;;;256.50;2252.80;;;;;;5095085;28;20024;-82
2021/10/12 06:24:41;;;;;;;8.32;6.05;;;256.50;2252.80;;;;;;5096510;28;20031;-80
2021/10/12 06:27:07;;;;;;;8.40;6.28;;;256.50;2252.80;;;;;;5095025;28;20115;-83
2021/10/12 06:29:33;;;;;;;9.75;7.35;;;256.50;2252.80;;;;;;5095666;28;20103;-81
2021/10/12 06:31:58;;;;;;;14.85;9.00;;;256.50;2252.80;;;;;;5096454;28;20041;-81
2021/10/12 06:34:24;;;;;;;35.25;19.60;;;256.60;2252.80;;;;;;5095638;28;20044;-81
2021/10/12 06:36:50;;;;;;;24.20;19.60;;;256.60;2252.80;;;;;;5095689;28;20085;-80
2021/10/12 06:39:16;;;;;;;25.50;16.15;;;256.60;2252.80;;;;;;5094911;28;20426;-82
2021/10/12 06:41:42;;;;;;;40.88;24.30;;;256.50;2252.80;;;;;;5094841;28;20052;-81
2021/10/12 06:44:09;;;;;;;20.90;12.95;;;256.60;2252.80;;;;;;5094531;28;20024;-82
2021/10/12 06:46:35;;;;;;;16.80;12.63;;;256.60;2252.80;;;;;;5094813;28;20077;-81
2021/10/12 06:49:00;;;;;;;14.68;9.10;;;256.60;2252.80;;;;;;5094780;28;20033;-81
2021/10/12 06:51:26;;;;;;;13.10;7.72;;;256.60;2252.80;;;;;;5094473;28;20115;-79
2021/10/12 06:53:52;;;;;;;18.50;14.88;;;256.60;2252.80;;;;;;5094666;28;20020;-82
2021/10/12 06:56:18;;;;;;;17.63;12.18;;;256.70;2252.80;;;;;;5094409;28;20134;-80
2021/10/12 06:58:44;;;;;;;31.95;22.42;;;256.70;2252.80;;;;;;5095263;28;20050;-81
2021/10/12 07:01:10;;;;;;;22.40;15.10;;;256.70;2252.80;;;;;;5095702;28;20028;-80
2021/10/12 07:03:36;;;;;;;16.90;12.60;;;256.70;2252.80;;;;;;5094367;28;20028;-81
2021/10/12 07:06:02;;;;;;;14.00;9.10;;;256.70;2252.80;;;;;;5094045;28;20035;-81
2021/10/12 07:08:28;;;;;;;12.55;8.73;;;256.90;2252.80;;;;;;5094336;28;20483;-80
2021/10/12 07:10:55;;;;;;;15.98;11.02;;;256.90;2252.80;;;;;;5093924;28;20020;-80
2021/10/12 07:13:28;;;;;;;16.88;11.15;;;256.80;2252.80;;;;;;5093914;28;20042;-81
2021/10/12 07:15:55;;;;;;;18.38;12.98;;;256.90;2252.80;;;;;;5093983;28;20127;-81
2021/10/12 07:18:21;;;;;;;16.67;12.52;;;256.90;2252.80;;;;;;5095023;28;20067;-80
2021/10/12 07:20:47;;;;;;;12.20;8.98;;;256.90;2252.80;;;;;;5094109;28;20428;-81
2021/10/12 07:23:14;;;;;;;12.48;10.07;;;256.90;2252.80;;;;;;5094013;28;20060;-80
2021/10/12 07:25:39;;;;;;;14.68;11.65;;;256.90;2252.80;;;;;;5094725;28;20429;-82
2021/10/12 07:28:06;;;;;;;13.30;11.25;;;256.90;2252.80;;;;;;5093866;28;20024;-80
2021/10/12 07:30:31;;;;;;;9.77;7.97;;;281.60;2278.40;;;;;;5093967;28;20460;-79
2021/10/12 07:32:57;;;;;;;12.77;9.00;;;281.70;2278.40;;;;;;5093551;28;20027;-80
2021/10/12 07:35:23;;;;;;;14.02;10.05;;;281.70;2278.40;;;;;;5093496;28;20055;-79
2021/10/12 07:37:49;;;;;;;19.48;16.48;;;281.70;2278.40;;;;;;5093657;28;20065;-82
2021/10/12 07:40:15;;;;;;;18.70;15.50;;;281.70;2278.40;;;;;;5092689;28;20380;-83
2021/10/12 07:42:41;;;;;;;17.13;13.18;;;281.70;2278.40;;;;;;5093798;28;20157;-81
2021/10/12 07:45:07;;;;;;;18.73;12.23;;;281.70;2278.40;;;;;;5094823;28;20024;-78
2021/10/12 07:47:33;;;;;;;17.10;12.30;;;256.90;2252.80;;;;;;5093178;28;20024;-79
2021/10/12 07:50:01;;;;;;;13.27;8.27;;;281.70;2278.40;;;;;;5093477;28;20067;-80
2021/10/12 07:52:29;;;;;;;9.82;6.72;;;281.80;2278.40;;;;;;5094045;28;20024;-78
2021/10/12 07:57:46;;;;;;;99.20;74.68;;;281.70;2278.40;;;;;;5085663;28;20033;-78
2021/10/12 08:00:13;;;;;;;55.13;49.38;;;281.70;2278.40;;;;;;5092858;28;20466;-80
2021/10/12 08:02:39;;;;;;;25.23;21.67;;;281.70;2278.40;;;;;;5094027;28;20479;-77
2021/10/12 08:05:05;;;;;;;15.50;11.82;;;281.70;2278.40;;;;;;5093989;28;20032;-78
2021/10/12 08:07:31;;;;;;;13.38;10.93;;;281.70;2278.40;;;;;;5094381;28;20056;-79
2021/10/12 08:09:58;;;;;;;10.60;8.93;;;281.70;2278.40;;;;;;5094273;28;20031;-79
2021/10/12 08:12:24;;;;;;;29.92;20.35;;;281.70;2278.40;;;;;;5093017;28;20024;-79
2021/10/12 08:14:57;;;;;;;21.73;13.88;;;281.70;2278.40;;;;;;5092531;28;20040;-77
2021/10/12 08:17:23;;;;;;;13.45;9.25;;;281.70;2278.40;;;;;;5092863;28;20081;-80
2021/10/12 08:19:49;;;;;;;12.85;9.60;;;281.70;2278.40;;;;;;5092724;28;20020;-78
2021/10/12 08:22:15;;;;;;;10.88;7.72;;;281.70;2278.40;;;;;;5094062;28;20020;-78
2021/10/12 08:24:42;;;;;;;10.68;7.38;;;281.60;2278.40;;;;;;5092754;28;20165;-77
2021/10/12 08:27:08;;;;;;;9.55;7.63;;;281.70;2278.40;;;;;;5092872;28;20157;-78
2021/10/12 08:29:33;;;;;;;10.15;8.15;;;281.60;2278.40;;;;;;5092389;28;20039;-78
2021/10/12 08:31:59;;;;;;;15.38;10.52;;;281.60;2278.40;;;;;;5092668;28;20024;-80
2021/10/12 08:34:25;;;;;;;10.90;8.55;;;281.60;2278.40;;;;;;5093885;28;20048;-79
2021/10/12 08:36:51;;;;;;;10.98;8.15;;;281.60;2278.40;;;;;;5092285;28;20460;-77
2021/10/12 08:39:18;;;;;;;15.75;10.60;;;281.60;2278.40;;;;;;5092633;28;20032;-79
2021/10/12 08:41:54;;;;;;;15.80;11.68;;;281.70;2278.40;;;;;;5092406;28;20024;-77
2021/10/12 08:44:20;;;;;;;17.33;11.80;;;281.60;2278.40;;;;;;5093020;28;20020;-78
2021/10/12 08:46:48;;;;;;;20.35;15.93;;;281.70;2278.40;;;;;;5092367;28;20031;-78
2021/10/12 08:49:14;;;;;;;16.15;11.57;;;281.70;2278.40;;;;;;5091937;28;20063;-78
2021/10/12 08:51:46;;;;;;;16.20;11.23;;;281.70;2278.40;;;;;;5096061;28;20058;-78
2021/10/12 08:54:12;;;;;;;14.43;10.00;;;281.70;2278.40;;;;;;5096528;28;20062;-77
2021/10/12 08:56:38;;;;;;;26.38;16.38;;;281.70;2278.40;;;;;;5096308;28;20028;-80
2021/10/12 08:59:04;;;;;;;14.30;9.52;;;281.70;2278.40;;;;;;5097860;28;20078;-79
2021/10/12 09:01:31;;;;;;;17.10;10.88;;;281.70;2278.40;;;;;;5096383;28;20032;-78
2021/10/12 09:06:33;;;;;;;16.10;10.52;;;281.70;2278.40;;;;;;5097652;28;20032;-78
2021/10/12 09:09:04;;;;;;;16.73;11.98;;;281.70;2278.40;;;;;;5096367;28;20465;-78
2021/10/12 09:11:34;;;;;;;19.00;11.38;;;281.70;2278.40;;;;;;5094460;28;20379;-79
2021/10/12 09:14:07;;;;;;;13.88;10.35;;;281.70;2278.40;;;;;;5095420;28;20590;-79
2021/10/12 09:16:43;;;;;;;14.57;8.90;;;281.70;2278.40;;;;;;5097567;28;20028;-80
2021/10/12 09:19:12;;;;;;;11.55;9.27;;;281.80;2278.40;;;;;;5096207;28;20029;-78
2021/10/12 09:21:49;;;;;;;11.88;7.88;;;281.90;2278.40;;;;;;5097418;28;20021;-78
2021/10/12 09:24:21;;;;;;;9.05;6.30;;;281.90;2278.40;;;;;;5097001;28;20403;-78
2021/10/12 09:26:50;;;;;;;10.30;7.50;;;281.90;2278.40;;;;;;5096084;28;20490;-80
2021/10/12 09:29:38;;;;;;;10.43;7.35;;;281.90;2278.40;;;;;;5095869;28;20028;-78
2021/10/12 09:32:06;;;;;;;8.35;5.80;;;281.90;2278.40;;;;;;5095668;28;20024;-77
2021/10/12 09:34:34;;;;;;;9.93;7.25;;;281.90;2278.40;;;;;;5095524;28;20048;-79
2021/10/12 09:37:00;;;;;;;21.90;13.38;;;282.00;2278.40;;;;;;5095835;28;20036;-78
2021/10/12 09:39:35;;;;;;;22.13;15.20;;;282.00;2278.40;;;;;;5096739;28;20024;-79
2021/10/12 09:42:02;;;;;;;15.52;11.93;;;282.10;2278.40;;;;;;5095770;28;20471;-79
2021/10/12 09:44:31;;;;;;;15.00;11.98;;;282.10;2278.40;;;;;;5095714;28;20488;-78
2021/10/12 09:47:12;;;;;;;24.27;21.77;;;282.10;2278.40;;;;;;5096557;28;20030;-77
2021/10/12 09:49:39;;;;;;;16.08;13.48;;;282.20;2278.40;;;;;;5095599;28;20024;-78
2021/10/12 09:52:13;;;;;;;18.80;16.00;;;282.20;2278.40;;;;;;5095311;28;20031;-78
2021/10/12 09:54:49;;;;;;;26.60;19.20;;;282.20;2278.40;;;;;;5095398;28;20042;-78
2021/10/12 09:57:18;;;;;;;17.38;12.60;;;282.30;2278.40;;;;;;5095563;28;20035;-78
2021/10/12 09:59:45;;;;;;;13.93;10.63;;;282.30;2278.40;;;;;;5095010;28;20464;-77
2021/10/12 10:02:19;;;;;;;11.77;8.23;;;282.40;2278.40;;;;;;5094640;28;20383;-79
2021/10/12 10:04:45;;;;;;;16.83;10.75;;;282.30;2278.40;;;;;;5096606;28;20468;-78
2021/10/12 10:07:45;;;;;;;13.82;9.93;;;282.40;2278.40;;;;;;5094924;28;20024;-78
2021/10/12 10:10:15;;;;;;;18.25;15.52;;;282.50;2278.40;;;;;;5092373;28;20136;-79
2021/10/12 10:12:40;;;;;;;19.92;16.52;;;307.20;2304.00;;;;;;5094923;28;20181;-75
2021/10/12 10:15:07;;;;;;;19.48;16.65;;;307.30;2304.00;;;;;;5095991;28;20539;-78
2021/10/12 10:17:33;;;;;;;14.85;10.10;;;307.30;2304.00;;;;;;5096377;28;20024;-78
2021/10/12 10:20:02;;;;;;;15.57;13.90;;;307.40;2304.00;;;;;;5094690;28;20157;-78
2021/10/12 10:22:38;;;;;;;9.55;8.43;;;307.40;2304.00;;;;;;5096235;28;20036;-77
2021/10/12 10:25:26;;;;;;;16.05;12.43;;;307.40;2304.00;;;;;;5094837;28;20127;-76
2021/10/12 10:27:52;;;;;;;16.35;11.40;;;307.50;2304.00;;;;;;5088454;28;20085;-77
2021/10/12 10:30:22;;;;;;;14.23;9.20;;;307.50;2304.00;;;;;;5094698;28;20031;-77
2021/10/12 10:32:51;;;;;;;11.23;9.48;;;307.60;2304.00;;;;;;5094537;28;20030;-77
2021/10/12 10:35:31;;;;;;;14.85;11.52;;;307.50;2304.00;;;;;;5094111;28;20093;-79
2021/10/12 10:38:20;;;;;;;14.98;10.80;;;307.60;2304.00;;;;;;5095966;28;20024;-79
2021/10/12 10:40:51;;;;;;;14.85;9.10;;;307.50;2304.00;;;;;;5094188;28;20073;-78
2021/10/12 10:43:17;;;;;;;12.32;8.18;;;307.50;2304.00;;;;;;5094883;28;20053;-77
2021/10/12 10:45:47;;;;;;;11.80;7.38;;;307.50;2304.00;;;;;;5094620;28;20123;-76
2021/10/12 10:48:16;;;;;;;14.02;9.18;;;307.40;2304.00;;;;;;5094078;28;20024;-79
2021/10/12 10:50:43;;;;;;;12.43;8.02;;;307.40;2304.00;;;;;;5094421;28;20478;-78
2021/10/12 10:53:11;;;;;;;13.60;11.43;;;307.50;2304.00;;;;;;5095490;28;20032;-78
2021/10/12 10:55:42;;;;;;;21.90;15.23;;;307.40;2304.00;;;;;;5094032;28;20031;-79
2021/10/12 10:58:09;;;;;;;28.52;22.50;;;307.40;2304.00;;;;;;5094329;28;20024;-78
2021/10/12 11:00:49;;;;;;;32.10;21.48;;;307.50;2304.00;;;;;;5095444;28;20107;-79
2021/10/12 11:03:36;;;;;;;33.47;21.20;;;307.50;2304.00;;;;;;5093942;28;20468;-78
2021/10/12 11:06:16;;;;;;;34.05;22.15;;;307.50;2304.00;;;;;;5093139;28;20024;-78
2021/10/12 11:08:56;;;;;;;27.15;19.75;;;307.50;2304.00;;;;;;5093719;28;20437;-77
2021/10/12 11:11:22;;;;;;;18.65;13.95;;;307.40;2304.00;;;;;;5095115;28;20048;-78
2021/10/12 11:13:48;;;;;;;22.60;16.30;;;307.40;2304.00;;;;;;5094876;28;20028;-79
2021/10/12 11:16:15;;;;;;;22.63;17.13;;;307.40;2304.00;;;;;;5094331;28;20035;-80
2021/10/12 11:18:46;;;;;;;18.15;14.93;;;307.50;2304.00;;;;;;5095353;28;20095;-79
2021/10/12 11:21:15;;;;;;;19.70;15.43;;;307.50;2304.00;;;;;;5093867;28;20024;-79
2021/10/12 11:23:54;;;;;;;16.92;13.57;;;307.50;2304.00;;;;;;5093444;28;20028;-78
2021/10/12 11:26:22;;;;;;;15.65;13.05;;;307.50;2304.00;;;;;;5095456;28;20030;-78
2021/10/12 11:28:52;;;;;;;14.40;11.93;;;307.50;2304.00;;;;;;5095011;28;20077;-76
2021/10/12 11:31:21;;;;;;;11.63;9.98;;;307.50;2304.00;;;;;;5093373;28;20050;-80
2021/10/12 11:33:48;;;;;;;12.48;10.75;;;307.50;2304.00;;;;;;5094727;28;20518;-77
2021/10/12 11:36:26;;;;;;;11.80;8.93;;;307.40;2304.00;;;;;;5093675;28;20068;-77
2021/10/12 11:38:57;;;;;;;11.55;8.98;;;307.40;2304.00;;;;;;5094513;28;20028;-78
2021/10/12 11:41:34;;;;;;;13.65;9.88;;;307.40;2304.00;;;;;;5093522;28;20020;-76
2021/10/12 11:44:02;;;;;;;15.43;12.63;;;307.50;2304.00;;;;;;5093268;28;20629;-78
2021/10/12 11:46:35;;;;;;;14.98;10.65;;;307.50;2304.00;;;;;;5094957;28;20103;-77
2021/10/12 11:49:08;;;;;;;14.13;12.20;;;307.50;2304.00;;;;;;5093359;28;20384;-77
2021/10/12 11:51:34;;;;;;;14.93;10.02;;;307.60;2304.00;;;;;;5094524;28;20043;-76
2021/10/12 11:54:00;;;;;;;19.13;15.50;;;307.60;2304.00;;;;;;5094497;28;20416;-78
2021/10/12 11:56:30;;;;;;;17.60;13.93;;;307.50;2304.00;;;;;;5093176;28;20498;-79
2021/10/12 11:58:57;;;;;;;14.70;11.63;;;307.50;2304.00;;;;;;5094411;28;20585;-78
2021/10/12 12:01:39;;;;;;;15.68;11.43;;;307.40;2304.00;;;;;;5093226;28;20379;-78
2021/10/12 12:04:06;;;;;;;18.02;12.10;;;307.40;2304.00;;;;;;5092925;28;20031;-76
2021/10/12 12:06:35;;;;;;;20.45;14.70;;;307.40;2304.00;;;;;;5092816;28;20028;-77
2021/10/12 12:09:09;;;;;;;32.83;20.55;;;307.40;2304.00;;;;;;5092926;28;20032;-76
2021/10/12 12:11:35;;;;;;;38.90;22.60;;;307.50;2304.00;;;;;;5092857;28;20024;-81
2021/10/12 12:14:03;;;;;;;68.80;36.97;;;307.40;2304.00;;;;;;5092701;28;20032;-79
2021/10/12 12:16:35;;;;;;;29.38;18.00;;;307.40;2304.00;;;;;;5093840;28;20028;-78
2021/10/12 12:19:20;;;;;;;18.23;10.93;;;307.40;2304.00;;;;;;5092576;28;20032;-78